Time;durP1;ratioP1;P1;durP2;ratioP2;P2;SDS_P1;SDS_P2;PMS_P1;PMS_P2;Temp;Humidity;BMP_temperature;BMP_pressure;BME280_temperature;BME280_humidity;BME280_pressure;Samples;Min_cycle;Max_cycle;Signal;HPM_P1;HPM_P2
2023/01/20 00:00:13;;;;;;;37.20;19.53;;;-0.50;99.90;;;;;;5072731;28;20218;-71
2023/01/20 00:02:42;;;;;;;31.13;17.80;;;-0.50;99.90;;;;;;5091043;28;20242;-70
2023/01/20 00:05:11;;;;;;;34.77;18.13;;;-0.50;99.90;;;;;;5090753;28;20200;-70
2023/01/20 00:07:40;;;;;;;31.93;18.00;;;-0.60;99.90;;;;;;5090873;28;20269;-69
2023/01/20 00:10:12;;;;;;;28.93;17.60;;;-0.60;99.90;;;;;;5090954;28;20242;-69
2023/01/20 00:12:41;;;;;;;30.60;18.27;;;-0.50;99.90;;;;;;5092001;28;20223;-70
2023/01/20 00:15:11;;;;;;;32.17;17.23;;;-0.40;99.90;;;;;;5091253;28;20241;-69
2023/01/20 00:17:40;;;;;;;32.97;17.53;;;-0.40;99.90;;;;;;5091763;28;20680;-69
2023/01/20 00:20:11;;;;;;;27.27;15.97;;;-0.50;99.90;;;;;;5092823;28;20192;-70
2023/01/20 00:22:41;;;;;;;26.67;16.73;;;-0.40;99.90;;;;;;5095124;28;20196;-68
2023/01/20 00:25:11;;;;;;;27.30;17.00;;;-0.30;99.90;;;;;;5094822;28;20197;-69
2023/01/20 00:27:41;;;;;;;28.40;16.37;;;-0.30;99.90;;;;;;5094573;28;20252;-68
2023/01/20 00:30:11;;;;;;;31.07;17.50;;;-0.30;99.90;;;;;;5075593;28;20258;-69
2023/01/20 00:32:43;;;;;;;28.43;15.53;;;-0.40;99.90;;;;;;5094154;28;20672;-70
2023/01/20 00:35:12;;;;;;;39.77;21.20;;;-0.40;99.90;;;;;;5095373;28;20220;-69
2023/01/20 00:37:43;;;;;;;34.90;18.40;;;-0.40;99.90;;;;;;5094419;28;20192;-70
2023/01/20 00:40:14;;;;;;;29.20;16.97;;;-0.40;99.90;;;;;;5085912;28;20618;-73
2023/01/20 00:42:43;;;;;;;29.23;16.63;;;-0.30;99.90;;;;;;5075820;28;20250;-70
2023/01/20 00:45:12;;;;;;;27.70;15.80;;;-0.30;99.90;;;;;;5084674;28;20204;-69
2023/01/20 00:47:41;;;;;;;27.40;16.30;;;-0.30;99.90;;;;;;5075780;28;20231;-68
2023/01/20 00:50:11;;;;;;;26.83;15.97;;;-0.30;99.90;;;;;;5093922;28;20240;-73
2023/01/20 00:52:40;;;;;;;26.30;16.73;;;-0.30;99.90;;;;;;5094259;28;20201;-71
2023/01/20 00:55:10;;;;;;;28.73;17.03;;;-0.30;99.90;;;;;;5093475;28;20185;-69
2023/01/20 00:57:41;;;;;;;28.70;16.57;;;-0.30;99.90;;;;;;5094728;28;20204;-70
2023/01/20 01:00:11;;;;;;;26.40;16.30;;;-0.30;99.90;;;;;;5095214;28;20209;-69
2023/01/20 01:02:39;;;;;;;25.90;15.77;;;-0.40;99.90;;;;;;5094975;28;20677;-70
2023/01/20 01:05:09;;;;;;;28.87;16.23;;;-0.50;99.90;;;;;;5095320;28;20192;-79
2023/01/20 01:07:38;;;;;;;28.30;17.50;;;-0.50;99.90;;;;;;5094955;28;20216;-75
2023/01/20 01:10:08;;;;;;;41.90;22.53;;;-0.50;99.90;;;;;;5094870;28;20293;-70
2023/01/20 01:12:37;;;;;;;29.83;17.27;;;-0.60;99.90;;;;;;5094012;28;20206;-69
2023/01/20 01:15:08;;;;;;;32.20;16.70;;;-0.60;99.90;;;;;;5081238;28;20228;-70
2023/01/20 01:17:37;;;;;;;23.23;15.93;;;-0.60;99.90;;;;;;5089116;28;20205;-69
2023/01/20 01:20:07;;;;;;;29.00;17.33;;;-0.70;99.90;;;;;;5093675;28;20192;-72
2023/01/20 01:22:36;;;;;;;26.03;15.83;;;-0.80;99.90;;;;;;5078921;28;20205;-69
2023/01/20 01:25:05;;;;;;;30.47;17.33;;;-0.80;99.90;;;;;;5074300;28;20213;-70
2023/01/20 01:27:35;;;;;;;30.50;17.27;;;-0.90;99.90;;;;;;5074460;28;20248;-70
2023/01/20 01:30:08;;;;;;;29.23;17.03;;;-0.90;99.90;;;;;;5074007;28;20197;-76
2023/01/20 01:32:38;;;;;;;27.67;17.03;;;-0.90;99.90;;;;;;5074007;28;20201;-69
2023/01/20 01:35:07;;;;;;;30.53;16.57;;;-0.90;99.90;;;;;;5074258;28;20197;-69
2023/01/20 01:37:36;;;;;;;25.07;15.73;;;-0.90;99.90;;;;;;5074053;28;20200;-69
2023/01/20 01:40:06;;;;;;;30.73;17.10;;;-0.90;99.90;;;;;;5074021;28;20204;-69
2023/01/20 01:42:36;;;;;;;32.30;17.73;;;-0.90;99.90;;;;;;5023264;28;20676;-69
2023/01/20 01:45:25;;;;;;;29.20;16.70;;;-0.80;99.90;;;;;;5074995;28;20197;-69
2023/01/20 01:48:05;;;;;;;28.47;16.43;;;-0.70;99.90;;;;;;5075393;28;20303;-69
2023/01/20 01:50:40;;;;;;;31.50;16.90;;;-0.70;99.90;;;;;;5075037;28;20189;-69
2023/01/20 01:53:09;;;;;;;30.23;17.53;;;-0.80;99.90;;;;;;5074244;28;20205;-68
2023/01/20 01:55:44;;;;;;;31.13;17.90;;;-0.70;99.90;;;;;;5073653;28;20213;-70
2023/01/20 01:58:19;;;;;;;30.90;17.33;;;-0.70;99.90;;;;;;5073634;28;20223;-69
2023/01/20 02:00:48;;;;;;;30.60;16.80;;;-0.70;99.90;;;;;;5073432;28;20200;-74
2023/01/20 02:03:18;;;;;;;30.87;16.77;;;-0.70;99.90;;;;;;5073371;28;20232;-70
2023/01/20 02:05:50;;;;;;;28.73;16.77;;;-0.80;99.90;;;;;;5073555;28;20288;-69
2023/01/20 02:08:20;;;;;;;27.97;17.07;;;-0.90;99.90;;;;;;5073623;28;20227;-69
2023/01/20 02:10:49;;;;;;;27.57;16.57;;;-0.90;99.90;;;;;;5073786;28;20208;-69
2023/01/20 02:13:18;;;;;;;27.53;16.70;;;-0.90;99.90;;;;;;5073316;28;20242;-70
2023/01/20 02:16:03;;;;;;;28.13;16.87;;;-0.80;99.90;;;;;;5073218;28;20693;-71
2023/01/20 02:18:44;;;;;;;33.43;17.40;;;-0.70;99.90;;;;;;5074361;28;20266;-75
2023/01/20 02:21:48;;;;;;;30.77;17.70;;;-0.60;99.90;;;;;;5082027;28;20577;-69
2023/01/20 02:24:40;;;;;;;32.07;17.73;;;-0.50;99.90;;;;;;5055294;28;20534;-69
2023/01/20 02:27:13;;;;;;;29.43;17.13;;;-0.50;99.90;;;;;;5069597;28;20733;-69
2023/01/20 02:30:16;;;;;;;27.83;15.77;;;-0.40;99.90;;;;;;5072866;28;20579;-72
2023/01/20 02:32:53;;;;;;;28.47;16.17;;;-0.40;99.90;;;;;;5070797;28;20208;-71
2023/01/20 02:35:29;;;;;;;32.90;17.07;;;-0.40;99.90;;;;;;5072939;28;20191;-69
2023/01/20 02:38:10;;;;;;;29.13;16.93;;;-0.30;99.90;;;;;;5072920;28;20196;-74
2023/01/20 02:40:49;;;;;;;32.73;17.27;;;-0.30;99.90;;;;;;5072831;28;20189;-70
2023/01/20 02:43:22;;;;;;;31.40;16.57;;;-0.20;99.90;;;;;;5072479;28;20200;-69
2023/01/20 02:46:03;;;;;;;31.63;17.93;;;-0.30;99.90;;;;;;5073558;28;20236;-71
2023/01/20 02:48:38;;;;;;;30.70;17.33;;;-0.50;99.90;;;;;;5072811;28;20230;-70
2023/01/20 02:51:12;;;;;;;28.80;16.27;;;-0.50;99.90;;;;;;5071551;28;20227;-70
2023/01/20 02:53:47;;;;;;;30.40;15.90;;;-0.40;99.90;;;;;;5072444;28;20205;-70
2023/01/20 02:56:19;;;;;;;28.30;16.63;;;-0.30;99.90;;;;;;5072598;28;20197;-70
2023/01/20 02:58:50;;;;;;;32.73;17.43;;;-0.30;99.90;;;;;;5072558;28;20209;-70
2023/01/20 03:01:24;;;;;;;31.77;16.90;;;-0.30;99.90;;;;;;5071990;28;20740;-71
2023/01/20 03:03:59;;;;;;;34.23;17.93;;;-0.40;99.90;;;;;;5072384;28;20275;-70
2023/01/20 03:06:34;;;;;;;27.60;17.17;;;-0.30;99.90;;;;;;5074671;28;20681;-70
2023/01/20 03:09:08;;;;;;;31.77;17.00;;;-0.30;99.90;;;;;;5081145;28;20220;-70
2023/01/20 03:11:43;;;;;;;30.50;16.67;;;-0.30;99.90;;;;;;5072431;28;20222;-70
2023/01/20 03:14:14;;;;;;;27.23;16.37;;;-0.20;99.90;;;;;;5072391;28;20192;-70
2023/01/20 03:16:46;;;;;;;28.50;16.17;;;-0.10;99.90;;;;;;5072194;28;20674;-72
2023/01/20 03:19:18;;;;;;;30.20;16.47;;;-0.10;99.90;;;;;;5072332;28;20189;-70
2023/01/20 03:21:49;;;;;;;30.20;15.77;;;0.00;99.90;;;;;;5072311;28;20276;-69
2023/01/20 03:24:17;;;;;;;25.93;15.93;;;0.10;99.90;;;;;;5072175;28;20228;-69
2023/01/20 03:26:46;;;;;;;33.23;17.40;;;0.00;99.90;;;;;;5083619;28;20221;-70
2023/01/20 03:29:17;;;;;;;26.83;16.27;;;-0.10;99.90;;;;;;5089856;28;20235;-70
2023/01/20 03:31:50;;;;;;;30.93;17.83;;;-0.20;99.90;;;;;;5092124;28;20555;-69
2023/01/20 03:34:23;;;;;;;25.50;16.07;;;-0.20;99.90;;;;;;5092549;28;20203;-72
2023/01/20 03:36:53;;;;;;;29.30;16.23;;;-0.20;99.90;;;;;;5092385;28;20200;-69
2023/01/20 03:39:24;;;;;;;31.57;17.00;;;-0.30;99.90;;;;;;5092314;28;20196;-69
2023/01/20 03:42:04;;;;;;;31.20;16.77;;;-0.40;99.90;;;;;;5092315;28;20192;-70
2023/01/20 03:44:49;;;;;;;27.77;16.23;;;-0.60;99.90;;;;;;5092506;28;20923;-70
2023/01/20 03:47:26;;;;;;;30.27;17.20;;;-0.60;99.90;;;;;;5092199;28;20195;-69
2023/01/20 03:50:02;;;;;;;33.73;16.90;;;-0.60;99.90;;;;;;5092043;28;20224;-69
2023/01/20 03:52:36;;;;;;;28.50;15.80;;;-0.50;99.90;;;;;;5092180;28;20596;-70
2023/01/20 03:55:21;;;;;;;31.63;16.13;;;-0.40;99.90;;;;;;5095416;28;20241;-69
2023/01/20 03:57:56;;;;;;;34.20;17.43;;;-0.40;99.90;;;;;;5096288;28;20192;-70
2023/01/20 04:00:27;;;;;;;29.70;17.43;;;-0.30;99.90;;;;;;5095903;28;20218;-70
2023/01/20 04:03:01;;;;;;;27.40;16.40;;;-0.30;99.90;;;;;;5095948;28;20236;-70
2023/01/20 04:05:31;;;;;;;27.67;16.83;;;-0.30;99.90;;;;;;5096194;28;20245;-69
2023/01/20 04:08:05;;;;;;;30.90;17.27;;;-0.20;99.90;;;;;;5088320;28;20677;-69
2023/01/20 04:10:38;;;;;;;30.70;17.27;;;-0.20;99.90;;;;;;5079473;28;20229;-69
2023/01/20 04:13:07;;;;;;;27.63;15.43;;;-0.30;99.90;;;;;;5075599;28;20195;-70
2023/01/20 04:15:40;;;;;;;26.87;15.87;;;-0.30;99.90;;;;;;5075590;28;20678;-70
2023/01/20 04:18:14;;;;;;;30.07;16.73;;;-0.20;99.90;;;;;;5075751;28;20276;-68
2023/01/20 04:20:47;;;;;;;28.00;15.97;;;-0.10;99.90;;;;;;5074497;28;20212;-69
2023/01/20 04:23:24;;;;;;;26.50;16.17;;;0.00;99.90;;;;;;5075531;28;20209;-68
2023/01/20 04:25:53;;;;;;;34.30;18.30;;;0.10;99.90;;;;;;5075432;28;20275;-69
2023/01/20 04:28:21;;;;;;;31.47;17.73;;;0.20;99.90;;;;;;5075408;28;20213;-69
2023/01/20 04:30:50;;;;;;;28.27;15.87;;;0.20;99.90;;;;;;5075119;28;20217;-69
2023/01/20 04:33:19;;;;;;;30.87;19.27;;;0.20;99.90;;;;;;5075391;28;20201;-68
2023/01/20 04:35:50;;;;;;;24.63;16.00;;;0.00;99.90;;;;;;5075341;28;20227;-70
2023/01/20 04:38:19;;;;;;;33.23;18.37;;;0.00;99.90;;;;;;5075273;28;20575;-69
2023/01/20 04:40:48;;;;;;;31.87;19.20;;;0.00;99.90;;;;;;5075136;28;20276;-74
2023/01/20 04:43:17;;;;;;;33.43;19.63;;;0.00;99.90;;;;;;5075186;28;20208;-69
2023/01/20 04:45:46;;;;;;;35.70;19.97;;;0.10;99.90;;;;;;5075058;28;20201;-69
2023/01/20 04:48:15;;;;;;;29.10;17.33;;;0.00;99.90;;;;;;5075103;28;20196;-72
2023/01/20 04:50:43;;;;;;;31.73;17.87;;;0.20;99.90;;;;;;5075040;28;20217;-69
2023/01/20 04:53:17;;;;;;;32.23;16.77;;;0.00;99.90;;;;;;5075074;28;20197;-69
2023/01/20 04:55:46;;;;;;;34.23;18.97;;;-0.20;99.90;;;;;;5075054;28;20682;-69
2023/01/20 04:58:15;;;;;;;33.67;18.47;;;-0.50;99.90;;;;;;5074845;28;20208;-69
2023/01/20 05:00:44;;;;;;;35.83;18.77;;;-0.40;99.90;;;;;;5074670;28;20556;-69
2023/01/20 05:03:13;;;;;;;36.90;19.37;;;-0.40;99.90;;;;;;5074641;28;20660;-71
2023/01/20 05:05:42;;;;;;;32.63;17.60;;;-0.50;99.90;;;;;;5074594;28;20240;-70
2023/01/20 05:08:11;;;;;;;31.77;18.33;;;-0.70;99.90;;;;;;5074591;28;20189;-70
2023/01/20 05:10:41;;;;;;;33.63;18.03;;;-0.70;99.90;;;;;;5074554;28;20232;-69
2023/01/20 05:13:13;;;;;;;33.47;19.30;;;-0.50;99.90;;;;;;5084838;28;20662;-69
2023/01/20 05:15:44;;;;;;;34.93;19.90;;;-0.30;99.90;;;;;;5074327;28;20304;-70
2023/01/20 05:18:12;;;;;;;34.33;20.60;;;-0.10;99.90;;;;;;5074623;28;20189;-73
2023/01/20 05:20:41;;;;;;;32.93;17.83;;;0.00;99.90;;;;;;5074399;28;20184;-69
2023/01/20 05:23:10;;;;;;;35.37;19.53;;;-0.10;99.90;;;;;;5056539;28;20258;-71
2023/01/20 05:25:40;;;;;;;35.37;19.43;;;-0.20;99.90;;;;;;5074530;28;20185;-69
2023/01/20 05:28:09;;;;;;;34.63;18.27;;;-0.20;99.90;;;;;;5074686;28;20773;-69
2023/01/20 05:30:38;;;;;;;36.80;18.90;;;-0.20;99.90;;;;;;5074142;28;20249;-69
2023/01/20 05:33:07;;;;;;;33.73;17.53;;;-0.20;99.90;;;;;;5079577;28;20192;-69
2023/01/20 05:35:38;;;;;;;34.30;18.53;;;-0.20;99.90;;;;;;5085959;28;20197;-70
2023/01/20 05:38:07;;;;;;;33.50;20.30;;;-0.10;99.90;;;;;;5074137;28;20208;-69
2023/01/20 05:40:36;;;;;;;29.33;18.00;;;-0.10;99.90;;;;;;5074111;28;20283;-71
2023/01/20 05:43:07;;;;;;;31.40;17.90;;;-0.10;99.90;;;;;;5074149;28;20287;-70
2023/01/20 05:45:36;;;;;;;31.30;18.00;;;-0.10;99.90;;;;;;5075607;28;20254;-69
2023/01/20 05:48:05;;;;;;;30.10;17.40;;;0.00;99.90;;;;;;5082970;28;20223;-72
2023/01/20 05:50:34;;;;;;;34.40;19.27;;;0.00;99.90;;;;;;5073880;28;20225;-70
2023/01/20 05:53:03;;;;;;;31.13;18.40;;;0.00;99.90;;;;;;5073865;28;20239;-70
2023/01/20 05:55:32;;;;;;;31.73;18.53;;;-0.10;99.90;;;;;;5073882;28;20225;-69
2023/01/20 05:58:02;;;;;;;34.60;19.27;;;-0.10;99.90;;;;;;5073572;28;20207;-70
2023/01/20 06:00:32;;;;;;;37.67;19.77;;;0.00;99.90;;;;;;5075953;28;20205;-70
2023/01/20 06:03:01;;;;;;;36.93;20.43;;;0.00;99.90;;;;;;5093577;28;20239;-74
2023/01/20 06:05:30;;;;;;;42.50;20.97;;;0.00;99.90;;;;;;5093898;28;20637;-70
2023/01/20 06:07:59;;;;;;;35.00;20.20;;;0.00;99.90;;;;;;5093783;28;20200;-69
2023/01/20 06:10:28;;;;;;;37.00;20.73;;;0.10;99.90;;;;;;5093624;28;20208;-69
2023/01/20 06:12:57;;;;;;;37.80;20.37;;;0.10;99.90;;;;;;5093751;28;20682;-70
2023/01/20 06:15:26;;;;;;;41.47;22.17;;;0.10;99.90;;;;;;5093565;28;20201;-69
2023/01/20 06:17:57;;;;;;;35.83;20.60;;;0.10;99.90;;;;;;5092928;28;20223;-71
2023/01/20 06:20:25;;;;;;;35.67;20.03;;;0.10;99.90;;;;;;5097104;28;20195;-71
2023/01/20 06:22:55;;;;;;;38.43;20.60;;;0.00;99.90;;;;;;5104656;28;20203;-70
2023/01/20 06:25:24;;;;;;;35.90;20.67;;;0.00;99.90;;;;;;5096342;28;20201;-69
2023/01/20 06:27:53;;;;;;;32.13;18.60;;;-0.10;99.90;;;;;;5080188;28;20670;-69
2023/01/20 06:30:22;;;;;;;36.10;19.77;;;-0.10;99.90;;;;;;5093339;28;20216;-70
2023/01/20 06:32:53;;;;;;;45.33;21.70;;;-0.10;99.90;;;;;;5093162;28;20217;-73
2023/01/20 06:35:23;;;;;;;42.23;21.87;;;-0.10;99.90;;;;;;5093334;28;20657;-69
2023/01/20 06:37:53;;;;;;;50.00;24.50;;;-0.10;99.90;;;;;;5093178;28;20568;-69
2023/01/20 06:40:22;;;;;;;42.70;22.40;;;-0.20;99.90;;;;;;5092985;28;20200;-70
2023/01/20 06:42:51;;;;;;;39.70;21.00;;;-0.10;99.90;;;;;;5093239;28;20188;-69
2023/01/20 06:45:20;;;;;;;42.43;21.63;;;-0.10;99.90;;;;;;5092812;28;20188;-72
2023/01/20 06:47:49;;;;;;;52.53;25.57;;;-0.10;99.90;;;;;;5092149;28;20200;-70
2023/01/20 06:50:18;;;;;;;54.37;29.13;;;-0.10;99.90;;;;;;5092259;28;20681;-75
2023/01/20 06:52:49;;;;;;;53.73;25.97;;;-0.20;99.90;;;;;;5092101;28;20652;-69
2023/01/20 06:55:18;;;;;;;58.13;27.60;;;-0.30;99.90;;;;;;5073884;28;20728;-69
2023/01/20 06:57:47;;;;;;;57.43;29.27;;;-0.20;99.90;;;;;;5087923;28;20735;-68
2023/01/20 07:00:16;;;;;;;64.80;28.23;;;-0.20;99.90;;;;;;5053916;28;20622;-77
2023/01/20 07:02:45;;;;;;;51.43;26.20;;;-0.10;99.90;;;;;;5071285;28;20736;-70
2023/01/20 07:05:14;;;;;;;50.53;26.43;;;-0.10;99.90;;;;;;5078437;28;20188;-71
2023/01/20 07:07:44;;;;;;;53.93;26.10;;;-0.10;99.90;;;;;;5082562;28;20185;-69
2023/01/20 07:10:15;;;;;;;46.30;23.07;;;-0.20;99.90;;;;;;5091848;28;20192;-70
2023/01/20 07:12:44;;;;;;;49.43;23.67;;;-0.20;99.90;;;;;;5091840;28;20347;-72
2023/01/20 07:15:13;;;;;;;48.87;25.57;;;-0.10;99.90;;;;;;5091495;28;20214;-69
2023/01/20 07:17:43;;;;;;;48.50;24.13;;;0.00;99.90;;;;;;5091547;28;20218;-71
2023/01/20 07:20:12;;;;;;;48.30;23.93;;;-0.10;99.90;;;;;;5091750;28;20211;-70
2023/01/20 07:22:41;;;;;;;50.90;26.23;;;-0.10;99.90;;;;;;5092081;28;20200;-69
2023/01/20 07:25:10;;;;;;;49.40;25.07;;;-0.10;99.90;;;;;;5091857;28;20201;-70
2023/01/20 07:27:41;;;;;;;47.20;23.47;;;-0.20;99.90;;;;;;5091723;28;20238;-69
2023/01/20 07:30:11;;;;;;;45.23;23.43;;;-0.30;99.90;;;;;;5072138;28;20192;-70
2023/01/20 07:32:40;;;;;;;49.10;23.67;;;-0.30;99.90;;;;;;5091749;28;20196;-69
2023/01/20 07:35:10;;;;;;;50.10;24.20;;;-0.30;99.90;;;;;;5091448;28;20246;-79
2023/01/20 07:37:39;;;;;;;53.60;25.97;;;-0.20;99.90;;;;;;5091437;28;20764;-70
2023/01/20 07:40:10;;;;;;;50.73;24.00;;;-0.30;99.90;;;;;;5091714;28;20196;-78
2023/01/20 07:42:39;;;;;;;55.27;26.13;;;-0.20;99.90;;;;;;5091532;28;20200;-71
2023/01/20 07:45:10;;;;;;;44.37;22.57;;;-0.20;99.90;;;;;;5091233;28;20200;-70
2023/01/20 07:47:39;;;;;;;51.27;24.33;;;-0.10;99.90;;;;;;5091400;28;20198;-71
2023/01/20 07:50:10;;;;;;;52.43;24.40;;;-0.20;99.90;;;;;;5092018;28;20223;-81
2023/01/20 07:52:38;;;;;;;48.27;26.20;;;-0.10;99.90;;;;;;5091819;28;20231;-71
2023/01/20 07:55:08;;;;;;;49.93;24.77;;;0.00;99.90;;;;;;5091968;28;20206;-70
2023/01/20 07:57:37;;;;;;;61.53;25.60;;;-0.10;99.90;;;;;;5091174;28;20193;-70
2023/01/20 08:00:07;;;;;;;58.97;26.63;;;-0.10;99.90;;;;;;5091138;28;20677;-82
2023/01/20 08:02:39;;;;;;;55.13;26.07;;;0.00;99.90;;;;;;5091441;28;20240;-71
2023/01/20 08:05:09;;;;;;;52.93;26.40;;;-0.10;99.90;;;;;;5091520;28;20678;-72
2023/01/20 08:07:38;;;;;;;120.93;52.53;;;-0.30;99.90;;;;;;5092248;28;20219;-78
2023/01/20 08:10:08;;;;;;;119.63;51.60;;;-0.20;99.90;;;;;;5087445;28;20575;-70
2023/01/20 08:12:36;;;;;;;112.53;44.03;;;0.10;99.90;;;;;;5072678;28;20335;-82
2023/01/20 08:15:07;;;;;;;105.13;42.73;;;0.20;99.90;;;;;;5073285;28;20686;-71
2023/01/20 08:17:36;;;;;;;117.43;45.70;;;0.30;99.90;;;;;;5073263;28;20189;-72
2023/01/20 08:20:08;;;;;;;72.83;34.40;;;0.40;99.90;;;;;;5079564;28;20184;-71
2023/01/20 08:22:38;;;;;;;47.37;24.53;;;0.50;99.90;;;;;;5075248;28;20292;-77
2023/01/20 08:25:07;;;;;;;46.77;22.47;;;0.40;99.90;;;;;;5088044;28;20226;-70
2023/01/20 08:27:36;;;;;;;52.27;24.00;;;0.30;99.90;;;;;;5079050;28;20189;-71
2023/01/20 08:30:06;;;;;;;53.50;25.60;;;0.30;99.90;;;;;;5075583;28;20193;-72
2023/01/20 08:32:35;;;;;;;47.70;23.23;;;0.40;99.90;;;;;;5023641;28;20232;-69
2023/01/20 08:35:06;;;;;;;53.73;24.40;;;0.40;99.90;;;;;;5082317;28;20196;-70
2023/01/20 08:37:36;;;;;;;43.10;23.67;;;0.30;99.90;;;;;;5092979;28;20201;-80
2023/01/20 08:40:07;;;;;;;58.77;25.90;;;0.20;99.90;;;;;;5100686;28;20185;-73
2023/01/20 08:42:37;;;;;;;50.00;24.63;;;0.30;99.90;;;;;;5098032;28;20223;-73
2023/01/20 08:45:08;;;;;;;50.53;25.90;;;0.30;99.90;;;;;;5096889;28;20201;-71
2023/01/20 08:47:37;;;;;;;44.83;21.77;;;0.30;99.90;;;;;;5095655;28;20211;-69
2023/01/20 08:50:09;;;;;;;45.90;23.33;;;0.30;99.90;;;;;;5095616;28;20634;-70
2023/01/20 08:52:38;;;;;;;49.37;25.03;;;0.30;99.90;;;;;;5095543;28;20216;-68
2023/01/20 08:55:07;;;;;;;52.60;24.90;;;0.00;99.90;;;;;;5096550;28;20195;-69
2023/01/20 08:57:39;;;;;;;50.57;24.77;;;-0.20;99.90;;;;;;5072079;28;20258;-82
2023/01/20 09:00:10;;;;;;;56.17;27.03;;;-0.10;99.90;;;;;;5087939;28;20279;-76
2023/01/20 09:02:39;;;;;;;75.07;44.77;;;-0.10;99.90;;;;;;5095052;28;20315;-76
2023/01/20 09:05:11;;;;;;;43.53;23.90;;;0.00;99.90;;;;;;5095194;28;20189;-69
2023/01/20 09:07:40;;;;;;;48.37;25.27;;;-0.20;99.90;;;;;;5095325;28;20219;-73
2023/01/20 09:10:10;;;;;;;93.70;37.23;;;-0.20;99.90;;;;;;5094877;28;20222;-74
2023/01/20 09:12:39;;;;;;;219.97;58.23;;;-0.10;99.90;;;;;;5083678;28;20752;-74
2023/01/20 09:15:10;;;;;;;123.93;41.50;;;0.20;99.90;;;;;;5083810;28;20212;-69
2023/01/20 09:17:39;;;;;;;83.87;32.07;;;0.40;99.90;;;;;;5075139;28;20247;-70
2023/01/20 09:20:11;;;;;;;56.97;26.43;;;0.60;99.90;;;;;;5074254;28;20204;-70
2023/01/20 09:22:40;;;;;;;49.20;24.90;;;0.60;99.90;;;;;;5021556;28;20216;-71
2023/01/20 09:25:10;;;;;;;47.03;24.00;;;0.70;99.90;;;;;;5074413;28;20193;-70
2023/01/20 09:27:39;;;;;;;51.00;26.60;;;0.80;99.90;;;;;;5088988;28;20192;-73
2023/01/20 09:30:09;;;;;;;50.00;25.70;;;0.90;99.90;;;;;;5094357;28;20260;-70
2023/01/20 09:32:38;;;;;;;45.50;24.13;;;0.90;99.90;;;;;;5085736;28;20232;-70
2023/01/20 09:35:08;;;;;;;50.80;25.50;;;0.90;99.90;;;;;;5093792;28;20204;-69
2023/01/20 09:46:30;;;;;;;48.63;26.43;;;1.00;99.90;;;;;;5095535;28;20202;-70
2023/01/20 09:55:02;;;;;;;57.53;25.57;;;1.00;99.90;;;;;;5107104;28;20191;-86
2023/01/20 09:57:37;;;;;;;46.70;24.50;;;0.90;99.90;;;;;;5100612;28;20294;-75
2023/01/20 10:00:12;;;;;;;45.93;23.47;;;0.80;99.90;;;;;;5094498;28;20192;-78
2023/01/20 10:02:48;;;;;;;47.17;23.03;;;0.60;99.90;;;;;;5111617;28;20231;-70
2023/01/20 10:05:21;;;;;;;43.83;22.40;;;0.60;99.90;;;;;;5115181;28;20213;-75
2023/01/20 10:07:56;;;;;;;43.20;21.90;;;0.60;99.90;;;;;;5114519;28;20196;-78
2023/01/20 10:10:31;;;;;;;45.47;21.90;;;0.70;99.90;;;;;;5114418;28;20226;-80
2023/01/20 10:13:07;;;;;;;42.27;20.40;;;0.80;99.90;;;;;;5114468;28;20223;-69
2023/01/20 10:15:37;;;;;;;40.27;21.87;;;0.80;99.90;;;;;;5114032;28;20192;-85
2023/01/20 10:18:10;;;;;;;43.37;21.60;;;0.90;99.90;;;;;;5113998;28;20200;-70
2023/01/20 10:20:44;;;;;;;62.43;29.30;;;0.90;99.90;;;;;;5113906;28;20219;-71
2023/01/20 10:23:20;;;;;;;36.77;20.87;;;1.00;99.90;;;;;;5113749;28;20199;-71
2023/01/20 10:25:53;;;;;;;38.67;21.43;;;1.00;99.90;;;;;;5113887;28;20202;-71
2023/01/20 10:28:27;;;;;;;35.03;18.40;;;0.90;99.90;;;;;;5113782;28;20223;-70
2023/01/20 10:30:57;;;;;;;34.83;18.30;;;0.50;99.90;;;;;;5113399;28;20648;-72
2023/01/20 10:33:30;;;;;;;45.03;21.73;;;0.50;99.90;;;;;;5086581;28;20258;-70
2023/01/20 10:36:01;;;;;;;38.43;19.17;;;0.30;99.90;;;;;;5072908;28;20207;-71
2023/01/20 10:38:40;;;;;;;39.40;18.60;;;0.00;99.90;;;;;;5083182;28;20595;-71
2023/01/20 10:41:17;;;;;;;67.17;25.90;;;0.10;99.90;;;;;;5093005;28;20241;-72
2023/01/20 10:43:48;;;;;;;61.67;24.23;;;0.10;99.90;;;;;;5093156;28;20257;-70
2023/01/20 10:46:30;;;;;;;44.57;21.33;;;0.20;99.90;;;;;;5084247;28;20219;-72
2023/01/20 10:49:35;;;;;;;31.77;18.63;;;0.60;99.90;;;;;;5072705;28;20243;-76
2023/01/20 10:52:19;;;;;;;34.67;19.00;;;0.90;99.90;;;;;;5010638;28;20198;-70
2023/01/20 10:54:54;;;;;;;35.57;18.97;;;1.20;99.90;;;;;;5010833;28;20603;-71
2023/01/20 10:57:25;;;;;;;41.47;22.50;;;1.00;99.90;;;;;;5010955;28;20234;-70
2023/01/20 10:59:57;;;;;;;33.00;20.37;;;1.20;99.90;;;;;;5010676;28;20203;-71
2023/01/20 11:02:28;;;;;;;34.07;20.70;;;1.10;99.90;;;;;;5017687;28;20221;-71
2023/01/20 11:05:01;;;;;;;41.37;21.10;;;1.20;99.90;;;;;;5020824;28;20262;-70
2023/01/20 11:07:33;;;;;;;36.47;19.83;;;1.20;99.90;;;;;;5013412;28;20684;-70
2023/01/20 11:10:14;;;;;;;38.23;21.10;;;1.30;99.90;;;;;;5024929;28;20199;-70
2023/01/20 11:12:48;;;;;;;42.43;21.87;;;1.30;99.90;;;;;;5029695;28;20222;-71
2023/01/20 11:15:20;;;;;;;52.50;24.10;;;1.30;99.90;;;;;;5029613;28;20245;-70
2023/01/20 11:18:22;;;;;;;52.43;24.97;;;1.50;99.90;;;;;;5030145;28;20195;-71
2023/01/20 11:20:54;;;;;;;39.90;21.47;;;1.30;99.90;;;;;;5010876;28;20214;-71
2023/01/20 11:23:26;;;;;;;38.87;20.87;;;1.20;99.90;;;;;;5011269;28;20199;-73
2023/01/20 11:25:58;;;;;;;46.67;24.77;;;1.10;99.90;;;;;;5010371;28;20561;-71
2023/01/20 11:28:36;;;;;;;36.43;21.53;;;1.20;99.90;;;;;;5054824;28;20221;-73
2023/01/20 11:31:06;;;;;;;35.80;20.53;;;1.30;99.90;;;;;;5071963;28;20189;-71
2023/01/20 11:33:35;;;;;;;31.63;18.33;;;1.20;99.90;;;;;;5071674;28;20220;-71
2023/01/20 11:36:06;;;;;;;40.27;21.07;;;1.30;99.90;;;;;;5072074;28;20188;-71
2023/01/20 11:38:43;;;;;;;41.60;21.73;;;0.70;99.90;;;;;;5072032;28;20281;-75
2023/01/20 11:41:19;;;;;;;38.77;21.93;;;0.80;99.90;;;;;;5072129;28;20212;-73
2023/01/20 11:43:52;;;;;;;40.67;22.17;;;1.10;99.90;;;;;;5073084;28;20239;-71
2023/01/20 11:46:27;;;;;;;39.93;23.10;;;1.20;99.90;;;;;;5089854;28;20208;-70
2023/01/20 11:49:15;;;;;;;38.97;20.80;;;1.30;99.90;;;;;;5085561;28;21071;-70
2023/01/20 11:51:50;;;;;;;42.13;22.27;;;1.40;99.90;;;;;;5078771;28;20192;-71
2023/01/20 11:54:22;;;;;;;42.13;23.53;;;1.50;99.90;;;;;;5092035;28;20783;-71
2023/01/20 11:56:54;;;;;;;38.00;22.00;;;1.50;99.90;;;;;;5084464;28;20658;-71
2023/01/20 11:59:27;;;;;;;41.37;22.10;;;1.50;99.90;;;;;;5072148;28;20193;-70
2023/01/20 12:02:00;;;;;;;37.20;21.23;;;1.50;99.90;;;;;;5071481;28;20225;-70
2023/01/20 12:04:51;;;;;;;50.40;26.00;;;1.50;99.90;;;;;;5083407;28;20208;-71
2023/01/20 12:07:26;;;;;;;41.07;22.53;;;1.60;99.90;;;;;;5088909;28;20230;-71
2023/01/20 12:10:03;;;;;;;41.30;23.53;;;1.60;99.90;;;;;;5072635;28;20205;-70
2023/01/20 12:12:39;;;;;;;42.50;23.00;;;1.60;99.90;;;;;;5089178;28;20226;-72
2023/01/20 12:15:19;;;;;;;43.40;23.73;;;1.70;99.90;;;;;;5093233;28;20207;-85
2023/01/20 12:17:57;;;;;;;41.67;24.53;;;1.70;99.90;;;;;;5095742;28;20189;-71
2023/01/20 12:20:33;;;;;;;48.03;23.87;;;1.70;99.90;;;;;;5096115;28;20188;-75
2023/01/20 12:23:23;;;;;;;45.73;24.17;;;1.80;99.90;;;;;;5095703;28;20196;-85
2023/01/20 12:25:55;;;;;;;52.37;26.87;;;1.90;99.90;;;;;;5095615;28;20187;-86
2023/01/20 12:28:31;;;;;;;48.30;27.57;;;2.00;99.90;;;;;;5095868;28;20199;-71
2023/01/20 12:31:03;;;;;;;58.37;28.70;;;2.00;99.90;;;;;;5095609;28;20207;-86
2023/01/20 12:33:35;;;;;;;63.43;32.00;;;1.90;99.90;;;;;;5095526;28;20761;-83
2023/01/20 12:36:37;;;;;;;58.80;33.30;;;1.90;99.90;;;;;;5095699;28;20271;-72
2023/01/20 12:39:31;;;;;;;64.47;31.67;;;1.90;99.90;;;;;;5095383;28;20253;-87
2023/01/20 12:42:30;;;;;;;61.80;30.87;;;1.80;99.90;;;;;;5095546;28;20192;-78
2023/01/20 12:45:10;;;;;;;73.30;36.57;;;1.70;99.90;;;;;;5030883;28;20217;-86
2023/01/20 12:47:53;;;;;;;68.63;34.30;;;1.70;99.90;;;;;;5014741;28;20203;-80
2023/01/20 12:50:32;;;;;;;75.13;36.57;;;1.60;99.90;;;;;;5033148;28;20229;-71
2023/01/20 12:53:16;;;;;;;84.03;39.47;;;1.50;99.90;;;;;;5032219;28;20218;-70
2023/01/20 12:55:54;;;;;;;87.97;43.60;;;1.50;99.90;;;;;;5032710;28;20659;-70
2023/01/20 12:58:38;;;;;;;95.83;42.37;;;1.50;99.90;;;;;;5032979;28;20304;-70
2023/01/20 13:01:31;;;;;;;102.67;46.53;;;1.50;99.90;;;;;;5032628;28;20290;-70
2023/01/20 13:04:41;;;;;;;78.53;39.73;;;1.60;99.90;;;;;;5032357;28;20660;-70
2023/01/20 13:07:38;;;;;;;78.60;37.57;;;1.50;99.90;;;;;;4954279;28;20216;-69
2023/01/20 13:10:39;;;;;;;78.20;38.00;;;1.40;99.90;;;;;;4896505;29;20358;-70
2023/01/20 13:13:19;;;;;;;74.50;35.17;;;1.50;99.90;;;;;;4897220;29;20199;-73